createdAt,value
2022-08-18T00:01:11.472Z,66.50
2022-08-18T00:03:57.084Z,66.50
2022-08-18T00:06:30.402Z,66.30
2022-08-18T00:09:01.667Z,65.80
2022-08-18T00:11:41.071Z,66.20
2022-08-18T00:14:11.470Z,65.30
2022-08-18T00:16:42.514Z,65.20
2022-08-18T00:19:10.457Z,65.60
2022-08-18T00:21:38.519Z,65.60
2022-08-18T00:24:07.993Z,65.50
2022-08-18T00:26:37.112Z,65.30
2022-08-18T00:29:05.222Z,66.00
2022-08-18T00:31:33.324Z,66.20
2022-08-18T00:34:01.360Z,66.20
2022-08-18T00:36:31.614Z,65.70
2022-08-18T00:38:59.548Z,66.30
2022-08-18T00:41:30.027Z,66.60
2022-08-18T00:43:58.720Z,66.30
2022-08-18T00:46:28.242Z,66.10
2022-08-18T00:48:58.876Z,65.70
2022-08-18T00:51:28.930Z,65.40
2022-08-18T00:54:00.261Z,65.30
2022-08-18T00:56:34.090Z,65.50
2022-08-18T00:59:05.224Z,65.80
2022-08-18T01:01:33.408Z,65.70
2022-08-18T01:04:04.214Z,65.40
2022-08-18T01:06:34.365Z,65.90
2022-08-18T01:09:03.138Z,66.20
2022-08-18T01:11:32.446Z,66.20
2022-08-18T01:14:00.371Z,65.90
2022-08-18T01:16:53.229Z,66.10
2022-08-18T01:19:43.052Z,66.60
2022-08-18T01:22:14.602Z,66.50
2022-08-18T01:25:01.203Z,66.20
2022-08-18T01:27:31.947Z,65.80
2022-08-18T01:30:05.050Z,65.60
2022-08-18T01:32:33.025Z,65.30
2022-08-18T01:35:00.990Z,65.70
2022-08-18T01:37:29.011Z,65.90
2022-08-18T01:41:12.892Z,65.80
2022-08-18T01:42:46.559Z,65.60
2022-08-18T01:45:14.899Z,66.10
2022-08-18T01:47:47.953Z,66.40
2022-08-18T01:50:16.478Z,66.20
2022-08-18T01:52:44.534Z,65.90
2022-08-18T01:55:14.589Z,66.40
2022-08-18T01:57:44.982Z,66.70
2022-08-18T02:00:14.519Z,66.50
2022-08-18T02:02:42.939Z,66.20
2022-08-18T02:05:13.390Z,65.80
2022-08-18T02:07:41.334Z,65.60
2022-08-18T02:10:12.274Z,65.40
2022-08-18T02:12:41.969Z,65.60
2022-08-18T02:15:10.867Z,66.10
2022-08-18T02:17:39.280Z,65.90
2022-08-18T02:20:08.616Z,65.80
2022-08-18T02:22:36.642Z,65.90
2022-08-18T02:25:05.139Z,66.40
2022-08-18T02:27:35.167Z,66.30
2022-08-18T02:30:07.508Z,66.20
2022-08-18T02:32:35.489Z,66.20
2022-08-18T02:35:05.930Z,66.80
2022-08-18T02:37:37.376Z,66.70
2022-08-18T02:40:08.436Z,66.40
2022-08-18T02:42:38.208Z,66.70
2022-08-18T02:45:08.386Z,65.70
2022-08-18T02:47:37.708Z,66.20
2022-08-18T02:50:06.621Z,65.40
2022-08-18T02:52:35.865Z,65.90
2022-08-18T02:55:04.054Z,66.20
2022-08-18T02:57:32.682Z,65.90
2022-08-18T03:00:01.270Z,65.90
2022-08-18T03:02:31.961Z,66.40
2022-08-18T03:04:59.979Z,66.60
2022-08-18T03:07:27.940Z,67.30
2022-08-18T03:09:55.938Z,66.20
2022-08-18T03:12:24.897Z,66.70
2022-08-18T03:14:53.779Z,66.80
2022-08-18T03:17:21.744Z,66.70
2022-08-18T03:19:51.242Z,66.30
2022-08-18T03:22:27.647Z,66.00
2022-08-18T03:24:57.682Z,65.70
2022-08-18T03:27:25.744Z,65.70
2022-08-18T03:29:53.711Z,65.70
2022-08-18T03:32:21.722Z,66.10
2022-08-18T03:34:51.012Z,66.00
2022-08-18T03:37:18.937Z,65.90
2022-08-18T03:39:46.899Z,66.20
2022-08-18T03:42:14.937Z,66.60
2022-08-18T03:44:42.835Z,66.60
2022-08-18T03:47:10.922Z,66.40
2022-08-18T03:49:39.028Z,66.30
2022-08-18T03:52:10.373Z,66.90
2022-08-18T03:54:38.823Z,66.80
2022-08-18T03:57:08.721Z,66.60
2022-08-18T03:59:36.676Z,66.20
2022-08-18T04:02:05.155Z,65.90
2022-08-18T04:04:33.153Z,65.70
2022-08-18T04:07:04.637Z,65.70
2022-08-18T04:09:34.634Z,66.00
2022-08-18T04:12:05.148Z,66.20
2022-08-18T04:14:34.897Z,66.10
2022-08-18T04:17:02.898Z,65.90
2022-08-18T04:19:30.990Z,66.50
2022-08-18T04:21:58.922Z,66.60
2022-08-18T04:24:28.195Z,66.40
2022-08-18T04:26:58.483Z,66.20
2022-08-18T04:29:27.312Z,66.90
2022-08-18T04:31:55.406Z,66.90
2022-08-18T04:34:23.772Z,66.60
2022-08-18T04:36:53.755Z,67.10
2022-08-18T04:39:21.962Z,66.00
2022-08-18T04:41:51.562Z,65.80
2022-08-18T04:44:21.661Z,65.70
2022-08-18T04:46:50.995Z,65.90
2022-08-18T04:49:19.341Z,66.10
2022-08-18T04:52:34.113Z,66.30
2022-08-18T04:54:55.721Z,65.90
2022-08-18T04:57:24.017Z,66.60
2022-08-18T04:59:53.420Z,66.70
2022-08-18T05:02:21.937Z,66.40
2022-08-18T05:04:49.916Z,66.20
2022-08-18T05:07:18.853Z,66.90
2022-08-18T05:09:46.849Z,67.00
2022-08-18T05:12:15.533Z,66.90
2022-08-18T05:14:44.496Z,67.30
2022-08-18T05:17:14.203Z,66.80
2022-08-18T05:19:44.248Z,67.20
2022-08-18T05:22:13.899Z,67.50
2022-08-18T05:24:42.526Z,66.80
2022-08-18T05:27:10.487Z,66.40
2022-08-18T05:29:42.001Z,65.90
2022-08-18T05:32:46.436Z,65.80
2022-08-18T05:35:05.896Z,65.70
2022-08-18T05:37:36.986Z,66.70
2022-08-18T05:40:10.872Z,66.10
2022-08-18T05:42:40.237Z,66.10
2022-08-18T05:45:11.077Z,66.00
2022-08-18T05:47:40.378Z,66.40
2022-08-18T05:50:10.456Z,66.70
2022-08-18T05:52:41.043Z,66.60
2022-08-18T05:55:29.007Z,66.30
2022-08-18T05:57:59.189Z,66.60
2022-08-18T06:00:27.178Z,67.10
2022-08-18T06:02:58.886Z,67.10
2022-08-18T06:05:28.929Z,66.70
2022-08-18T06:07:59.654Z,66.60
2022-08-18T06:10:27.753Z,67.30
2022-08-18T06:12:57.005Z,67.20
2022-08-18T06:15:26.682Z,66.90
2022-08-18T06:18:30.023Z,66.60
2022-08-18T06:21:07.964Z,66.10
2022-08-18T06:23:40.425Z,66.00
2022-08-18T06:26:13.609Z,65.90
2022-08-18T06:28:51.605Z,66.40
2022-08-18T06:31:24.802Z,66.50
2022-08-18T06:34:09.323Z,66.40
2022-08-18T06:36:41.019Z,66.30
2022-08-18T06:39:12.983Z,66.80
2022-08-18T06:41:43.822Z,66.80
2022-08-18T06:44:14.874Z,66.70
2022-08-18T06:46:46.044Z,66.50
2022-08-18T06:49:24.348Z,67.20
2022-08-18T06:51:52.255Z,67.30
2022-08-18T06:54:28.032Z,67.00
2022-08-18T06:56:56.693Z,66.70
2022-08-18T06:59:26.638Z,66.40
2022-08-18T07:01:56.073Z,66.20
2022-08-18T07:05:01.696Z,66.20
2022-08-18T07:07:39.443Z,66.40
2022-08-18T07:10:29.577Z,66.60
2022-08-18T07:13:08.066Z,66.50
2022-08-18T07:15:36.350Z,66.30
2022-08-18T07:18:05.177Z,67.10
2022-08-18T07:20:42.040Z,67.20
2022-08-18T07:23:10.616Z,67.00
2022-08-18T07:25:40.743Z,66.60
2022-08-18T07:28:08.801Z,67.50
2022-08-18T07:30:37.971Z,67.40
2022-08-18T07:33:13.905Z,67.20
2022-08-18T07:35:45.932Z,66.80
2022-08-18T07:38:40.716Z,66.50
2022-08-18T07:41:07.673Z,66.40
2022-08-18T07:43:38.831Z,66.30
2022-08-18T07:46:09.300Z,66.90
2022-08-18T07:48:39.980Z,66.90
2022-08-18T07:51:13.576Z,66.70
2022-08-18T07:53:54.807Z,66.70
2022-08-18T07:56:30.235Z,67.40
2022-08-18T07:58:59.695Z,67.40
2022-08-18T08:01:33.529Z,67.20
2022-08-18T08:04:25.460Z,66.90
2022-08-18T08:07:22.957Z,67.70
2022-08-18T08:09:52.284Z,67.60
2022-08-18T08:12:24.347Z,67.20
2022-08-18T08:14:55.067Z,66.90
2022-08-18T08:17:25.578Z,66.70
2022-08-18T08:20:03.531Z,66.60
2022-08-18T08:22:37.710Z,66.80
2022-08-18T08:25:22.732Z,67.00
2022-08-18T08:28:07.281Z,67.10
2022-08-18T08:30:36.992Z,66.90
2022-08-18T08:33:12.526Z,67.20
2022-08-18T08:35:49.613Z,67.60
2022-08-18T08:38:39.921Z,67.30
2022-08-18T08:41:13.254Z,67.20
2022-08-18T08:43:43.046Z,67.70
2022-08-18T08:46:12.621Z,67.90
2022-08-18T08:48:42.445Z,67.50
2022-08-18T08:51:23.397Z,67.20
2022-08-18T08:53:58.542Z,66.80
2022-08-18T08:56:31.282Z,66.60
2022-08-18T08:59:00.290Z,66.50
2022-08-18T09:01:31.641Z,66.60
2022-08-18T09:04:02.521Z,67.00
2022-08-18T09:06:34.965Z,67.00
2022-08-18T09:09:16.078Z,66.80
2022-08-18T09:12:11.892Z,66.90
2022-08-18T09:15:07.914Z,67.50
2022-08-18T09:17:47.527Z,67.40
2022-08-18T09:20:35.938Z,67.10
2022-08-18T09:23:07.297Z,67.70
2022-08-18T09:25:46.357Z,67.90
2022-08-18T09:28:16.962Z,67.60
2022-08-18T09:30:49.298Z,67.20
2022-08-18T09:33:22.907Z,66.80
2022-08-18T09:36:11.873Z,66.80
2022-08-18T09:42:12.965Z,67.10
2022-08-18T09:45:06.971Z,67.20
2022-08-18T09:48:20.767Z,67.10
2022-08-18T09:50:57.052Z,67.40
2022-08-18T09:53:52.238Z,67.60
2022-08-18T09:56:58.954Z,67.50
2022-08-18T09:59:56.314Z,67.10
2022-08-18T10:03:02.368Z,68.00
2022-08-18T10:05:31.379Z,67.90
2022-08-18T10:08:28.991Z,67.40
2022-08-18T10:13:49.829Z,68.10
2022-08-18T10:16:22.260Z,67.90
2022-08-18T10:18:55.707Z,67.40
2022-08-18T10:24:36.053Z,66.70
2022-08-18T10:27:06.652Z,66.70
2022-08-18T10:30:01.823Z,66.80
2022-08-18T10:32:54.478Z,67.10
2022-08-18T10:35:58.347Z,67.10
2022-08-18T10:38:39.183Z,66.70
2022-08-18T10:41:15.664Z,67.40
2022-08-18T10:43:56.072Z,67.70
2022-08-18T10:46:29.688Z,67.60
2022-08-18T10:49:21.267Z,67.10
2022-08-18T10:52:10.522Z,68.00
2022-08-18T10:54:51.768Z,68.00
2022-08-18T10:57:27.315Z,67.70
2022-08-18T10:59:58.210Z,67.30
2022-08-18T11:02:41.207Z,68.10
2022-08-18T11:05:12.003Z,68.20
2022-08-18T11:07:44.865Z,67.80
2022-08-18T11:10:58.147Z,67.40
2022-08-18T11:16:02.607Z,66.80
2022-08-18T11:18:42.945Z,66.70
2022-08-18T11:21:26.528Z,66.90
2022-08-18T11:24:14.096Z,67.20
2022-08-18T11:26:51.137Z,67.00
2022-08-18T11:29:26.850Z,66.90
2022-08-18T11:31:59.570Z,67.60
2022-08-18T11:34:33.142Z,68.40
2022-08-18T11:37:03.870Z,67.50
2022-08-18T11:39:43.680Z,67.20
2022-08-18T11:42:15.815Z,67.60
2022-08-18T11:44:50.012Z,67.70
2022-08-18T11:47:19.254Z,67.40
2022-08-18T11:49:58.637Z,67.20
2022-08-18T11:52:30.815Z,67.10
2022-08-18T11:55:14.772Z,66.90
2022-08-18T11:57:54.401Z,67.00
2022-08-18T12:00:57.329Z,67.50
2022-08-18T12:03:37.801Z,67.40
2022-08-18T12:06:19.577Z,67.20
2022-08-18T12:08:59.509Z,67.60
2022-08-18T12:11:29.145Z,68.00
2022-08-18T12:14:29.581Z,67.90
2022-08-18T12:16:51.099Z,67.50
2022-08-18T12:19:24.267Z,68.20
2022-08-18T12:21:55.630Z,68.30
2022-08-18T12:27:21.510Z,67.50
2022-08-18T12:29:50.775Z,67.20
2022-08-18T12:35:09.433Z,66.90
2022-08-18T12:40:27.750Z,67.40
2022-08-18T12:42:56.112Z,67.30
2022-08-18T12:45:25.796Z,67.10
2022-08-18T12:47:55.251Z,67.60
2022-08-18T12:50:31.276Z,68.00
2022-08-18T12:53:03.274Z,67.90
2022-08-18T12:55:35.083Z,67.50
2022-08-18T12:58:05.968Z,68.00
2022-08-18T13:00:34.773Z,68.30
2022-08-18T13:03:04.432Z,68.10
2022-08-18T13:05:32.436Z,67.50
2022-08-18T13:08:04.202Z,67.30
2022-08-18T13:10:45.152Z,67.10
2022-08-18T13:13:14.683Z,67.00
2022-08-18T13:15:44.486Z,67.50
2022-08-18T13:18:27.334Z,67.50
2022-08-18T13:20:58.519Z,67.50
2022-08-18T13:23:27.155Z,67.30
2022-08-18T13:26:01.495Z,67.70
2022-08-18T13:28:30.944Z,68.10
2022-08-18T13:31:04.232Z,68.00
2022-08-18T13:33:53.690Z,67.60
2022-08-18T13:36:22.330Z,67.80
2022-08-18T13:38:52.363Z,68.30
2022-08-18T13:43:52.754Z,67.80
2022-08-18T13:46:29.855Z,67.30
2022-08-18T13:49:03.112Z,67.10
2022-08-18T13:51:31.680Z,66.90
2022-08-18T13:54:18.659Z,67.20
2022-08-18T13:56:51.637Z,67.40
2022-08-18T13:59:20.697Z,67.40
2022-08-18T14:01:51.649Z,67.20
2022-08-18T14:04:22.255Z,67.70
2022-08-18T14:06:57.133Z,68.00
2022-08-18T14:09:36.101Z,67.90
2022-08-18T14:12:21.569Z,67.60
2022-08-18T14:14:52.807Z,67.70
2022-08-18T14:17:22.522Z,68.30
2022-08-18T14:20:10.652Z,67.70
2022-08-18T14:23:01.134Z,67.20
2022-08-18T14:25:46.392Z,66.70
2022-08-18T14:28:18.704Z,66.70
2022-08-18T14:30:54.918Z,66.50
2022-08-18T14:33:49.429Z,66.90
2022-08-18T14:36:12.149Z,67.20
2022-08-18T14:38:40.635Z,67.10
2022-08-18T14:41:10.191Z,67.00
2022-08-18T14:43:53.879Z,67.70
2022-08-18T14:46:30.175Z,68.00
2022-08-18T14:48:58.746Z,67.80
2022-08-18T14:51:27.501Z,67.40
2022-08-18T14:53:56.069Z,67.20
2022-08-18T14:56:28.449Z,67.00
2022-08-18T14:58:58.741Z,66.90
2022-08-18T15:01:26.909Z,67.50
2022-08-18T15:03:55.061Z,67.50
2022-08-18T15:06:27.396Z,67.50
2022-08-18T15:08:56.937Z,67.40
2022-08-18T15:11:25.211Z,67.60
2022-08-18T15:13:55.422Z,67.90
2022-08-18T15:16:27.015Z,67.80
2022-08-18T15:19:00.334Z,67.70
2022-08-18T15:21:46.114Z,67.50
2022-08-18T15:24:33.112Z,68.10
2022-08-18T15:27:10.491Z,68.00
2022-08-18T15:29:47.461Z,67.40
2022-08-18T15:32:20.250Z,67.10
2022-08-18T15:34:50.974Z,67.00
2022-08-18T15:37:22.135Z,66.90
2022-08-18T15:39:58.659Z,67.00
2022-08-18T15:42:27.235Z,67.30
2022-08-18T15:44:55.409Z,67.80
2022-08-18T15:47:26.286Z,67.30
2022-08-18T15:49:55.174Z,67.50
2022-08-18T15:52:25.899Z,68.00
2022-08-18T15:54:56.935Z,67.90
2022-08-18T15:57:39.197Z,67.50
2022-08-18T16:00:12.255Z,67.20
2022-08-18T16:02:48.335Z,67.20
2022-08-18T16:05:17.744Z,67.20
2022-08-18T16:07:47.480Z,67.40
2022-08-18T16:10:15.665Z,68.40
2022-08-18T16:12:46.122Z,67.70
2022-08-18T16:15:15.281Z,67.40
2022-08-18T16:17:49.265Z,67.60
2022-08-18T16:20:18.647Z,68.20
2022-08-18T16:22:46.799Z,68.20
2022-08-18T16:25:16.349Z,68.50
2022-08-18T16:27:44.465Z,67.40
2022-08-18T16:30:14.396Z,67.40
2022-08-18T16:32:42.400Z,67.30
2022-08-18T16:35:12.381Z,67.20
2022-08-18T16:37:40.442Z,67.80
2022-08-18T16:40:09.528Z,67.70
2022-08-18T16:42:37.518Z,67.70
2022-08-18T16:45:06.430Z,67.40
2022-08-18T16:47:37.456Z,68.30
2022-08-18T16:50:06.669Z,68.20
2022-08-18T16:52:36.245Z,68.00
2022-08-18T16:55:06.722Z,67.90
2022-08-18T16:57:55.194Z,67.70
2022-08-18T17:00:41.494Z,67.70
2022-08-18T17:03:27.190Z,68.00
2022-08-18T17:06:00.654Z,68.10
2022-08-18T17:08:33.436Z,67.90
2022-08-18T17:11:01.881Z,67.90
2022-08-18T17:13:30.244Z,68.30
2022-08-18T17:15:58.200Z,68.40
2022-08-18T17:18:26.208Z,68.10
2022-08-18T17:20:55.537Z,68.10
2022-08-18T17:23:23.615Z,68.70
2022-08-18T17:25:52.969Z,68.60
2022-08-18T17:28:26.205Z,68.20
2022-08-18T17:30:54.422Z,67.80
2022-08-18T17:33:24.526Z,67.50
2022-08-18T17:35:54.056Z,67.50
2022-08-18T17:38:26.947Z,67.50
2022-08-18T17:40:57.860Z,67.80
2022-08-18T17:43:27.389Z,67.90
2022-08-18T17:45:57.157Z,67.90
2022-08-18T17:48:26.688Z,67.60
2022-08-18T17:51:14.562Z,68.50
2022-08-18T17:53:42.550Z,68.50
2022-08-18T17:56:15.905Z,68.30
2022-08-18T17:58:48.110Z,68.00
2022-08-18T18:01:16.279Z,68.80
2022-08-18T18:03:44.472Z,68.80
2022-08-18T18:06:16.412Z,68.60
2022-08-18T18:08:52.424Z,68.10
2022-08-18T18:11:25.877Z,69.00
2022-08-18T18:13:54.650Z,68.90
2022-08-18T18:16:26.796Z,68.70
2022-08-18T18:18:59.939Z,68.20
2022-08-18T18:22:00.136Z,67.90
2022-08-18T18:24:23.627Z,67.80
2022-08-18T18:26:53.619Z,67.80
2022-08-18T18:29:29.103Z,68.10
2022-08-18T18:32:00.731Z,68.20
2022-08-18T18:34:31.724Z,68.10
2022-08-18T18:37:00.207Z,68.00
2022-08-18T18:39:33.121Z,68.70
2022-08-18T18:42:17.561Z,68.70
2022-08-18T18:44:52.584Z,68.40
2022-08-18T18:47:34.809Z,67.90
2022-08-18T18:50:04.852Z,67.80
2022-08-18T18:52:37.250Z,67.80
2022-08-18T18:55:07.040Z,67.90
2022-08-18T18:57:42.888Z,68.30
2022-08-18T19:00:19.632Z,68.30
2022-08-18T19:02:55.457Z,68.20
2022-08-18T19:05:27.710Z,68.20
2022-08-18T19:08:05.750Z,68.90
2022-08-18T19:10:38.385Z,68.70
2022-08-18T19:13:12.490Z,68.40
2022-08-18T19:16:02.897Z,68.00
2022-08-18T19:18:34.454Z,67.90
2022-08-18T19:21:49.321Z,67.90
2022-08-18T19:23:55.697Z,68.80
2022-08-18T19:26:27.103Z,68.50
2022-08-18T19:29:11.917Z,68.40
2022-08-18T19:31:43.286Z,68.20
2022-08-18T19:34:14.233Z,68.60
2022-08-18T19:36:47.932Z,68.80
2022-08-18T19:39:18.160Z,68.80
2022-08-18T19:41:49.585Z,68.50
2022-08-18T19:44:30.871Z,68.90
2022-08-18T19:47:01.618Z,69.10
2022-08-18T19:49:33.709Z,68.90
2022-08-18T19:52:05.671Z,68.50
2022-08-18T19:54:58.970Z,68.10
2022-08-18T19:57:34.952Z,67.90
2022-08-18T20:00:21.639Z,67.80
2022-08-18T20:03:14.481Z,68.20
2022-08-18T20:05:45.781Z,68.30
2022-08-18T20:08:47.620Z,68.30
2022-08-18T20:11:42.514Z,68.20
2022-08-18T20:14:11.458Z,69.50
2022-08-18T20:16:43.813Z,68.90
2022-08-18T20:19:55.201Z,68.70
2022-08-18T20:22:30.800Z,68.40
2022-08-18T20:25:04.501Z,69.20
2022-08-18T20:27:35.937Z,69.10
2022-08-18T20:30:26.186Z,68.70
2022-08-18T20:33:16.549Z,68.20
2022-08-18T20:35:47.733Z,67.90
2022-08-18T20:38:19.321Z,67.90
2022-08-18T20:40:48.518Z,67.90
2022-08-18T20:43:31.665Z,68.30
2022-08-18T20:46:12.487Z,69.10
2022-08-18T20:48:50.069Z,68.30
2022-08-18T20:51:20.634Z,68.10
2022-08-18T20:54:09.267Z,68.60
2022-08-18T20:56:46.400Z,68.70
2022-08-18T20:59:19.865Z,68.60
2022-08-18T21:01:55.318Z,68.70
2022-08-18T21:04:42.968Z,69.90
2022-08-18T21:07:35.856Z,69.00
2022-08-18T21:10:12.637Z,68.50
2022-08-18T21:12:41.317Z,68.30
2022-08-18T21:15:21.574Z,68.20
2022-08-18T21:17:57.824Z,68.10
2022-08-18T21:20:27.131Z,68.50
2022-08-18T21:23:04.247Z,68.70
2022-08-18T21:25:33.500Z,68.60
2022-08-18T21:28:02.192Z,68.30
2022-08-18T21:30:30.462Z,68.90
2022-08-18T21:32:58.606Z,69.00
2022-08-18T21:35:32.946Z,69.00
2022-08-18T21:38:01.722Z,68.70
2022-08-18T21:40:39.127Z,68.90
2022-08-18T21:43:07.509Z,69.10
2022-08-18T21:45:38.917Z,69.00
2022-08-18T21:48:07.172Z,68.50
2022-08-18T21:50:36.576Z,68.10
2022-08-18T21:53:06.572Z,67.90
2022-08-18T21:55:36.929Z,67.90
2022-08-18T21:58:08.494Z,68.00
2022-08-18T22:00:37.404Z,68.50
2022-08-18T22:03:15.005Z,68.40
2022-08-18T22:05:58.226Z,68.40
2022-08-18T22:08:28.987Z,68.30
2022-08-18T22:11:59.890Z,69.00
2022-08-18T22:14:35.762Z,69.00
2022-08-18T22:17:31.244Z,68.90
2022-08-18T22:20:32.295Z,69.10
2022-08-18T22:23:21.277Z,69.30
2022-08-18T22:25:49.237Z,68.90
2022-08-18T22:28:22.363Z,68.40
2022-08-18T22:30:50.302Z,68.20
2022-08-18T22:33:18.301Z,68.10
2022-08-18T22:35:54.397Z,68.10
2022-08-18T22:38:23.764Z,68.50
2022-08-18T22:40:51.741Z,68.60
2022-08-18T22:43:19.742Z,68.50
2022-08-18T22:45:47.706Z,68.30
2022-08-18T22:48:16.470Z,69.70
2022-08-18T22:50:46.189Z,69.20
2022-08-18T22:53:14.785Z,69.00
2022-08-18T22:55:44.158Z,68.80
2022-08-18T22:58:13.087Z,69.10
2022-08-18T23:00:45.280Z,69.30
2022-08-18T23:03:13.235Z,69.00
2022-08-18T23:05:41.306Z,68.70
2022-08-18T23:08:09.290Z,68.30
2022-08-18T23:10:37.385Z,68.10
2022-08-18T23:13:06.659Z,68.00
2022-08-18T23:15:47.467Z,68.20
2022-08-18T23:18:19.489Z,68.50
2022-08-18T23:20:48.849Z,68.50
2022-08-18T23:23:17.243Z,68.50
2022-08-18T23:25:45.234Z,68.30
2022-08-18T23:28:15.607Z,69.00
2022-08-18T23:30:44.510Z,68.90
2022-08-18T23:33:12.432Z,68.90
2022-08-18T23:35:40.690Z,68.70
2022-08-18T23:38:08.725Z,69.30
2022-08-18T23:40:36.893Z,69.10
2022-08-18T23:43:05.445Z,68.80
2022-08-18T23:45:36.985Z,68.70
2022-08-18T23:48:06.318Z,68.10
2022-08-18T23:50:34.345Z,68.00
2022-08-18T23:53:02.812Z,67.90
2022-08-18T23:55:31.036Z,68.20
2022-08-18T23:57:59.031Z,68.40
